METAR Data
IDs: Format: Raw Decoded Include TAF

Data at: 0850 UTC 26 Jan 2020

KISW 260754Z AUTO 29009KT 10SM OVC011 00/M02 A2987 RMK AO2 SLP126 T00001022
KISW 260654Z AUTO 30009KT 10SM OVC011 01/M02 A2987 RMK AO2 SLP127 T00061017
KISW 260554Z AUTO 28007KT 10SM OVC011 01/M02 A2987 RMK AO2 SLP127 T00061017 10011 20006 400220000 53006
KISW 260454Z AUTO 29008KT 10SM OVC010 01/M02 A2987 RMK AO2 SLP124 T00061017
KISW 260354Z AUTO 29007KT 8SM OVC012 01/M01 A2986 RMK AO2 SLP123 T00061011
KISW 260301Z AUTO 29008KT 10SM OVC014 01/M01 A2986 RMK AO2 T00111011
KISW 260254Z AUTO 29007KT 10SM OVC015 01/M01 A2986 RMK AO2 SLP122 T00111011 51005
KISW 260154Z AUTO 30005KT 10SM OVC017 01/M01 A2986 RMK AO2 SLP122 T00111011
KISW 260120Z AUTO 30007KT 10SM BKN017 OVC048 01/M01 A2986 RMK AO2 T00111011
KISW 260054Z AUTO 29005KT 10SM SCT039 OVC048 01/M01 A2985 RMK AO2 SLP120 T00111011
KISW 260017Z AUTO 30006KT 10SM BKN032 OVC039 01/M01 A2985 RMK AO2 T00111006
KISW 252354Z AUTO 31005KT 10SM BKN021 OVC026 01/M01 A2984 RMK AO2 UPE08 SLP116 P0000 60000 T00111006 10022 20011 51011
KISW 252330Z AUTO 31007KT 10SM FEW008 SCT014 OVC023 01/M01 A2984 RMK AO2 UPE08 P0000 T00111006
KISW 252254Z AUTO 30008KT 10SM UP FEW010 OVC015 02/M01 A2983 RMK AO2 RAB49E50UPB50 SLP112 P0000 T00171006
KISW 252154Z AUTO 30005KT 10SM OVC020 02/M01 A2982 RMK AO2 SLP109 T00221011
KISW 252054Z AUTO 32007KT 10SM OVC025 02/M02 A2981 RMK AO2 SLP105 60000 T00221017 55000
KISW 251954Z AUTO 33008KT 10SM OVC020 02/M01 A2981 RMK AO2 SLP104 T00171011
KISW 251945Z AUTO 33006KT 10SM OVC018 02/M01 A2981 RMK AO2 T00171011
KISW 251907Z AUTO 32009KT 10SM BKN012 OVC018 02/M01 A2981 RMK AO2 T00171011
KISW 251854Z AUTO 33006KT 10SM SCT012 OVC019 02/M01 A2981 RMK AO2 SNE15 SLP104 P0000 T00171011
KISW 251754Z AUTO 35008KT 3SM -SN BR SCT014 OVC021 01/M01 A2981 RMK AO2 SNB48 SLP105 P0000 60003 T00111011 10017 20000 58001
KISW 251738Z AUTO 34007KT 10SM BKN014 BKN019 OVC055 02/M01 A2981 RMK AO2 T00171011
KISW 251714Z AUTO 34006KT 10SM SCT014 BKN027 OVC050 01/M01 A2981 RMK AO2 T00111011
KISW 251654Z AUTO 34007KT 10SM BKN014 OVC024 01/M01 A2982 RMK AO2 SLP108 T00111011
KISW 251646Z AUTO 34007KT 10SM BKN012 OVC024 01/M01 A2982 RMK AO2 T00111011
KISW 251615Z AUTO 33007KT 10SM BKN009 BKN019 OVC026 01/M01 A2982 RMK AO2 CIG 007V011 T00061011
KISW 251554Z AUTO 33006KT 10SM BKN010 OVC017 01/M01 A2981 RMK AO2 SNE18 SLP107 P0000 T00061011
KISW 251531Z AUTO 35005KT 10SM BKN015 00/M02 A2981 RMK AO2 SNE18 P0000 T00001017
KISW 251454Z AUTO 35007KT 4SM -SN BR SCT008 BKN012 OVC023 00/M02 A2981 RMK AO2 SLP104 P0000 60003 T00001017 50004
KISW 251426Z AUTO 34006KT 3SM -SN BR BKN007 OVC012 01/M01 A2981 RMK AO2 P0000 T00061006
KISW 251415Z AUTO 33007KT 2SM -SN BR BKN007 OVC012 00/M01 A2981 RMK AO2 P0000 T00001006
KISW 251404Z AUTO 33006KT 1SM -SN BR OVC009 00/M01 A2981 RMK AO2 P0000 T00001011
KISW 251354Z AUTO 33006KT 2 1/2SM -SN BR OVC009 00/M01 A2981 RMK AO2 CIG 005V014 SLP105 P0001 T00001006
KISW 251329Z AUTO 34006KT 4SM -SN BR BKN007 OVC013 01/M01 A2980 RMK AO2 CIG 004V009 P0001 T00061006
KISW 251254Z AUTO 34007KT 2SM -SN BR BKN005 OVC019 01/M01 A2979 RMK AO2 SLP099 P0002 T00061006
KISW 251249Z AUTO 34007KT 2SM -SN BR BKN005 OVC019 01/M01 A2979 RMK AO2 P0002
KISW 251154Z AUTO 32007KT 1 1/2SM -SN BR BKN006 OVC014 01/M01 A2979 RMK AO2 SLP098 P0001 60002 70010 T00061006 10006 20006 55002
KISW 251125Z AUTO 32005KT 1 3/4SM -SN BR BKN006 OVC024 01/M01 A2978 RMK AO2 P0000 T00061006
KISW 251109Z AUTO 32006KT 2SM -SN BR BKN006 OVC033 01/M01 A2978 RMK AO2 P0000 T00061006
KISW 251054Z AUTO 33006KT 2 1/2SM -SN BR SCT005 OVC040 01/M01 A2978 RMK AO2 SNB35 SLP095 P0000 T00061006
KISW 251040Z AUTO 32006KT 2 1/2SM -SN BR FEW005 OVC040 01/M01 A2978 RMK AO2 SNB35 P0000 T00061006
KISW 251005Z AUTO 32006KT 5SM BR FEW016 SCT020 OVC043 01/M01 A2978 RMK AO2 T00061006
KISW 250954Z AUTO 32006KT 5SM BR BKN016 OVC042 01/M01 A2978 RMK AO2 SNB12E51 SLP096 P0000 T00061006
KISW 250945Z AUTO 32006KT 3SM -SN BR FEW011 BKN016 OVC025 01/M01 A2978 RMK AO2 SNB12 P0000 T00061006
KISW 250929Z AUTO 33005KT 2 1/2SM -SN BR BKN012 OVC016 01/M01 A2978 RMK AO2 SNB12 P0000 T00061006
KISW 250921Z AUTO 32005KT 3SM -SN BR OVC010 01/M01 A2978 RMK AO2 SNB12 P0000 T00061006
KISW 250854Z AUTO 33003KT 9SM BKN008 OVC025 01/M01 A2979 RMK AO2 SLP099 60001 T00061006 56004
KISW 250824Z AUTO 36005KT 9SM OVC008 01/M01 A2980 RMK AO2 CIG 006V012 T00061006
KISW 250754Z AUTO 35005KT 7SM SCT008 OVC013 01/M01 A2979 RMK AO2 SNE51 SLP100 P0001 T00061006
KISW 250751Z AUTO 35006KT 6SM BR SCT008 OVC013 01/M01 A2979 RMK AO2 SNE51 P0001
KISW 250728Z AUTO 34006KT 3SM -SN BR BKN009 OVC014 01/M01 A2979 RMK AO2 CIG 005V012 P0001 T00061006
KISW 250719Z AUTO 33007KT 2 1/2SM -SN BR BKN009 OVC012 01/M01 A2980 RMK AO2 CIG 004V010 P0001 T00061006
KISW 250654Z AUTO 35005KT 3SM -SN BR BKN007 OVC011 01/M01 A2980 RMK AO2 SLP103 P0000 T00061006
KISW 250640Z AUTO 35006KT 2SM -SN BR BKN005 OVC010 01/M01 A2981 RMK AO2 CIG 004V009 P0000 T00061006
KISW 250629Z AUTO 35005KT 2SM -SN BR BKN004 OVC010 01/M01 A2981 RMK AO2 P0000 T00061006
KISW 250609Z AUTO 34004KT 2 1/2SM -SN BR SCT004 OVC009 01/M01 A2982 RMK AO2 CIG 008V013 P0000 T00061006
KISW 250554Z AUTO 34005KT 1 3/4SM -SN BR SCT004 OVC009 01/M01 A2982 RMK AO2 SLP108 P0003 60005 T00061006 10011 20006 400111011 58008
KISW 250540Z AUTO 34004KT 1 3/4SM -SN BR OVC008 01/M01 A2982 RMK AO2 P0002 T00061006
KISW 250529Z AUTO 34005KT 2SM -SN BR OVC006 01/M01 A2983 RMK AO2 P0002 T00061006
KISW 250518Z AUTO 35005KT 1 3/4SM -SN BR OVC005 01/M01 A2983 RMK AO2 P0002 T00061006
KISW 250502Z AUTO 35004KT 1SM -SN BR OVC005 01/M01 A2983 RMK AO2 P0001 T00061006
KISW 250454Z AUTO 35004KT 1 1/4SM -SN BR OVC006 01/M01 A2983 RMK AO2 SLP112 P0002 T00061006
KISW 250440Z AUTO 35005KT 1 1/4SM -SN BR OVC006 01/M01 A2983 RMK AO2 P0001 T00061006
KISW 250431Z AUTO 35005KT 2SM -SN BR OVC006 01/M01 A2983 RMK AO2 P0000 T00061006
KISW 250354Z AUTO 35005KT 3SM -SN BR BKN006 OVC011 01/M01 A2983 RMK AO2 SNB41 CIG 005V011 SLP113 P0000 T00061006
KISW 250254Z AUTO 01008KT 4SM BR OVC006 01/M01 A2984 RMK AO2 CIG 004V011 SLP118 T00061006 58007
KISW 250154Z AUTO 03006KT 5SM BR OVC006 01/M01 A2985 RMK AO2 SLP121 T00061006
KISW 250054Z AUTO 02008KT 10SM OVC007 01/M01 A2987 RMK AO2 SLP126 T00111006
KISW 242354Z AUTO 02007KT 10SM OVC008 01/M01 A2987 RMK AO2 SNE17 CIG 006V010 SLP125 P0000 60001 T00061006 10011 20006 58002
KISW 242330Z AUTO 02007KT 6SM BR BKN008 OVC013 01/M01 A2987 RMK AO2 SNE17 P0000 T00061006
KISW 242305Z AUTO 03006KT 3SM -SN BR SCT008 BKN013 OVC020 01/M01 A2987 RMK AO2 P0000 T00061006
KISW 242254Z AUTO 02008KT 2 1/2SM -SN BR OVC012 01/M01 A2987 RMK AO2 SNB37 SLP127 P0001 T00111006
KISW 242250Z AUTO 02008KT 2 1/2SM -SN BR OVC010 01/M01 A2987 RMK AO2 SNB37 P0001
KISW 242201Z AUTO 02006KT 6SM BR OVC011 01/00 A2988 RMK AO2 CIG 007V013 T00110000
KISW 242154Z AUTO 02005KT 7SM OVC009 01/00 A2987 RMK AO2 CIG 007V013 SLP128 T00110000
KISW 242054Z AUTO 03006KT 3SM BR OVC007 01/00 A2988 RMK AO2 CIG 005V011 SLP131 60000 T00110000 56016